createdAt,value
2023-04-02T00:13:30.033Z,50.5
2023-04-02T00:16:47.396Z,50.5
2023-04-02T00:20:06.241Z,50.5
2023-04-02T00:23:22.338Z,50.5
2023-04-02T00:28:18.271Z,50.5
2023-04-02T00:33:14.447Z,50.5
2023-04-02T00:38:09.028Z,50
2023-04-02T00:39:46.365Z,50
2023-04-02T00:43:11.850Z,50
2023-04-02T00:49:46.845Z,50
2023-04-02T00:51:25.366Z,50
2023-04-02T00:54:41.500Z,50
2023-04-02T00:56:18.209Z,50
2023-04-02T00:58:05.198Z,49.5
2023-04-02T01:01:22.420Z,49.5
2023-04-02T01:03:01.156Z,49.5
2023-04-02T01:07:57.308Z,48.5
2023-04-02T01:12:50.516Z,46
2023-04-02T01:17:46.532Z,44.5
2023-04-02T01:19:25.325Z,44.5
2023-04-02T01:21:04.112Z,44.5
2023-04-02T01:22:42.736Z,44.5
2023-04-02T01:29:16.134Z,45
2023-04-02T01:30:53.299Z,45
2023-04-02T01:39:06.744Z,45
2023-04-02T01:40:45.446Z,45
2023-04-02T01:42:24.228Z,44.5
2023-04-02T01:44:02.996Z,44.5
2023-04-02T01:47:18.870Z,44.5
2023-04-02T01:55:31.019Z,44.5
2023-04-02T02:03:44.539Z,44
2023-04-02T02:05:21.625Z,44
2023-04-02T02:10:15.967Z,44
2023-04-02T02:25:01.406Z,43.5
2023-04-02T02:28:18.649Z,43.5
2023-04-02T02:29:57.346Z,43.5
2023-04-02T02:33:14.904Z,43.5
2023-04-02T02:38:10.967Z,43
2023-04-02T02:41:26.923Z,43
2023-04-02T02:43:04.097Z,43
2023-04-02T02:44:42.824Z,43
2023-04-02T02:46:21.462Z,43
2023-04-02T02:48:00.315Z,43
2023-04-02T02:54:34.983Z,43
2023-04-02T02:57:52.451Z,42.5
2023-04-02T03:01:06.847Z,42.5
2023-04-02T03:02:45.560Z,42.5
2023-04-02T03:06:03.140Z,42.5
2023-04-02T03:10:59.218Z,42.5
2023-04-02T03:14:16.546Z,42
2023-04-02T03:17:32.436Z,42
2023-04-02T03:19:09.369Z,42
2023-04-02T03:22:26.859Z,42
2023-04-02T03:27:22.944Z,42
2023-04-02T03:38:50.844Z,41.5
2023-04-02T03:40:29.568Z,41.5
2023-04-02T03:43:47.050Z,41.5
2023-04-02T03:45:25.692Z,41.5
2023-04-02T03:48:43.131Z,41.5
2023-04-02T03:55:14.853Z,41
2023-04-02T04:00:11.055Z,41
2023-04-02T04:01:49.679Z,41
2023-04-02T04:05:07.080Z,41
2023-04-02T04:06:45.877Z,41
2023-04-02T04:10:03.304Z,41
2023-04-02T04:11:40.435Z,41
2023-04-02T04:16:35.100Z,40.5
2023-04-02T04:21:31.280Z,41
2023-04-02T04:23:09.913Z,40.5
2023-04-02T04:24:48.711Z,40.5
2023-04-02T04:29:43.240Z,40.5
2023-04-02T04:32:59.235Z,40.5
2023-04-02T04:37:55.305Z,40.5
2023-04-02T04:42:51.407Z,40.5
2023-04-02T04:44:30.110Z,40.5
2023-04-02T04:46:08.832Z,40
2023-04-02T04:49:23.327Z,40
2023-04-02T04:59:15.532Z,40
2023-04-02T05:00:54.220Z,40
2023-04-02T05:02:32.938Z,40
2023-04-02T05:04:11.641Z,40
2023-04-02T05:09:04.813Z,40
2023-04-02T05:10:43.535Z,39.5
2023-04-02T05:14:00.929Z,39.5
2023-04-02T05:15:39.632Z,39.5
2023-04-02T05:20:35.746Z,39.5
2023-04-02T05:22:14.456Z,39.5
2023-04-02T05:23:51.677Z,39.5
2023-04-02T05:27:07.636Z,39.5
2023-04-02T05:32:03.869Z,39.5
2023-04-02T05:36:59.892Z,39
2023-04-02T05:38:38.632Z,39
2023-04-02T05:41:54.486Z,39
2023-04-02T05:43:31.742Z,39
2023-04-02T05:48:27.948Z,39
2023-04-02T05:50:06.562Z,39
2023-04-02T05:53:23.963Z,39
2023-04-02T05:55:02.761Z,39
2023-04-02T05:58:20.074Z,38.5
2023-04-02T06:03:13.250Z,38.5
2023-04-02T06:04:52.051Z,38.5
2023-04-02T06:06:30.653Z,38.5
2023-04-02T06:09:48.069Z,38.5
2023-04-02T06:14:44.262Z,38.5
2023-04-02T06:21:16.068Z,38.5
2023-04-02T06:26:12.174Z,38
2023-04-02T06:29:37.772Z,38
2023-04-02T06:31:16.487Z,38
2023-04-02T06:34:32.497Z,38
2023-04-02T06:36:09.387Z,38
2023-04-02T06:37:56.223Z,38
2023-04-02T06:44:31.013Z,38
2023-04-02T06:46:09.760Z,38
2023-04-02T06:47:48.461Z,38
2023-04-02T06:49:27.125Z,38
2023-04-02T06:51:04.370Z,38
2023-04-02T06:52:41.618Z,38
2023-04-02T06:59:16.430Z,38
2023-04-02T07:05:51.398Z,37.5
2023-04-02T07:09:07.193Z,37.5
2023-04-02T07:10:44.420Z,37.5
2023-04-02T07:15:40.524Z,37.5
2023-04-02T07:17:19.244Z,37.5
2023-04-02T07:18:57.927Z,37.5
2023-04-02T07:20:36.635Z,37.5
2023-04-02T07:22:15.348Z,37.5
2023-04-02T07:25:32.749Z,37.5
2023-04-02T07:28:46.806Z,37.5
2023-04-02T07:37:00.382Z,37
2023-04-02T07:38:39.008Z,37
2023-04-02T07:43:35.124Z,37
2023-04-02T07:45:12.360Z,37
2023-04-02T07:46:49.625Z,37
2023-04-02T07:48:28.319Z,37
2023-04-02T07:55:03.350Z,36.5
2023-04-02T07:56:41.869Z,37
2023-04-02T07:58:20.572Z,37
2023-04-02T08:01:38.122Z,36.5
2023-04-02T08:09:48.611Z,36.5
2023-04-02T08:22:55.242Z,36.5
2023-04-02T08:26:12.672Z,36
2023-04-02T08:27:51.346Z,36
2023-04-02T08:31:08.754Z,36
2023-04-02T08:32:47.455Z,36
2023-04-02T08:34:26.143Z,36
2023-04-02T08:36:04.854Z,36
2023-04-02T08:42:36.881Z,35.5
2023-04-02T08:47:32.865Z,35.5
2023-04-02T08:49:11.557Z,35.5
2023-04-02T08:52:28.963Z,35.5
2023-04-02T08:59:00.952Z,35.5
2023-04-02T09:00:39.612Z,35.5
2023-04-02T09:08:53.066Z,35.5
2023-04-02T09:10:31.779Z,35
2023-04-02T09:13:49.214Z,35
2023-04-02T09:15:26.111Z,35
2023-04-02T09:17:03.283Z,35
2023-04-02T09:21:59.339Z,35
2023-04-02T09:25:16.752Z,35
2023-04-02T09:26:55.481Z,35
2023-04-02T09:28:34.153Z,35
2023-04-02T09:30:12.865Z,35
2023-04-02T09:33:28.806Z,35
2023-04-02T09:35:06.039Z,35
2023-04-02T09:36:44.801Z,35
2023-04-02T09:38:23.453Z,34.5
2023-04-02T09:41:40.853Z,34.5
2023-04-02T09:43:19.571Z,35
2023-04-02T09:46:37.121Z,34.5
2023-04-02T09:51:31.620Z,34.5
2023-04-02T09:53:08.852Z,34.5
2023-04-02T09:58:04.967Z,34.5
2023-04-02T09:59:43.680Z,34.5
2023-04-02T10:03:01.063Z,34.5
2023-04-02T10:07:57.194Z,34.5
2023-04-02T10:11:11.723Z,34
2023-04-02T10:19:25.190Z,34.5
2023-04-02T10:29:14.490Z,34
2023-04-02T10:30:53.196Z,34
2023-04-02T10:32:31.943Z,34
2023-04-02T10:34:10.590Z,34
2023-04-02T10:35:49.293Z,34
2023-04-02T10:37:28.022Z,34
2023-04-02T10:40:45.416Z,34
2023-04-02T10:45:40.048Z,34
2023-04-02T10:47:17.326Z,34
2023-04-02T10:48:56.002Z,34
2023-04-02T10:52:13.405Z,34
2023-04-02T10:53:52.105Z,34
2023-04-02T10:57:09.492Z,34
2023-04-02T11:02:05.618Z,34
2023-04-02T11:03:42.426Z,34
2023-04-02T11:11:54.590Z,33.5
2023-04-02T11:13:33.181Z,33.5
2023-04-02T11:18:29.285Z,33.5
2023-04-02T11:20:07.985Z,33.5
2023-04-02T11:21:45.231Z,33.5
2023-04-02T11:26:39.937Z,33.5
2023-04-02T11:36:32.105Z,33.5
2023-04-02T11:39:48.039Z,33.5
2023-04-02T11:41:25.285Z,33.5
2023-04-02T11:43:04.015Z,33.5
2023-04-02T11:46:21.401Z,33.5
2023-04-02T11:51:17.503Z,33
2023-04-02T11:59:28.106Z,33
2023-04-02T12:02:45.509Z,33
2023-04-02T12:04:24.212Z,33
2023-04-02T12:06:02.992Z,33
2023-04-02T12:11:07.265Z,33
2023-04-02T12:14:23.160Z,33
2023-04-02T12:16:00.510Z,33
2023-04-02T12:25:52.618Z,33
2023-04-02T12:27:31.324Z,33
2023-04-02T12:30:48.731Z,33
2023-04-02T12:32:25.966Z,33
2023-04-02T12:34:03.279Z,33
2023-04-02T12:35:41.941Z,33
2023-04-02T12:37:20.607Z,33
2023-04-02T12:38:59.318Z,33
2023-04-02T12:40:38.023Z,33
2023-04-02T12:42:16.723Z,33
2023-04-02T12:45:34.320Z,33
2023-04-02T12:47:12.832Z,33
2023-04-02T12:50:28.908Z,33
2023-04-02T12:52:06.019Z,33
2023-04-02T12:57:02.135Z,33
2023-04-02T12:58:40.827Z,33
2023-04-02T13:01:58.240Z,33
2023-04-02T13:03:36.941Z,33
2023-04-02T13:05:15.645Z,33
2023-04-02T13:06:54.350Z,33
2023-04-02T13:08:31.595Z,32.5
2023-04-02T13:10:08.837Z,33
2023-04-02T13:13:26.248Z,32.5
2023-04-02T13:15:04.952Z,32.5
2023-04-02T13:18:22.363Z,32.5
2023-04-02T13:20:01.071Z,32.5
2023-04-02T13:21:39.902Z,32.5
2023-04-02T13:23:18.457Z,32.5
2023-04-02T13:24:57.155Z,32.5
2023-04-02T13:26:34.431Z,32.5
2023-04-02T13:28:11.649Z,32.5
2023-04-02T13:29:50.354Z,32.5
2023-04-02T13:31:29.058Z,32.5
2023-04-02T13:34:46.458Z,32.5
2023-04-02T13:36:25.162Z,32.5
2023-04-02T13:38:03.873Z,32.5
2023-04-02T13:39:42.585Z,32.5
2023-04-02T13:42:59.990Z,32.5
2023-04-02T13:46:14.460Z,32
2023-04-02T13:49:31.877Z,32.5
2023-04-02T13:51:10.570Z,32
2023-04-02T13:52:49.286Z,32
2023-04-02T13:54:27.973Z,32
2023-04-02T13:56:06.679Z,32
2023-04-02T13:57:45.379Z,32
2023-04-02T14:01:02.793Z,32
2023-04-02T14:02:40.140Z,32
2023-04-02T14:07:34.698Z,32
2023-04-02T14:12:30.788Z,32
2023-04-02T14:14:09.486Z,32
2023-04-02T14:17:26.970Z,32
2023-04-02T14:19:05.594Z,32
2023-04-02T14:20:42.848Z,32
2023-04-02T14:23:58.883Z,32
2023-04-02T14:28:54.895Z,31.5
2023-04-02T14:30:33.598Z,32
2023-04-02T14:35:29.781Z,31.5
2023-04-02T14:38:45.652Z,31.5
2023-04-02T14:43:39.948Z,31.5
2023-04-02T14:45:18.648Z,31.5
2023-04-02T14:50:14.679Z,31.5
2023-04-02T14:51:53.382Z,31.5
2023-04-02T14:53:32.082Z,31.5
2023-04-02T14:55:10.845Z,31.5
2023-04-02T14:56:48.173Z,31.5
2023-04-02T14:58:25.275Z,31.5
2023-04-02T15:01:42.724Z,31.5
2023-04-02T15:03:21.376Z,31.5
2023-04-02T15:06:38.801Z,31.5
2023-04-02T15:08:17.488Z,31.5
2023-04-02T15:11:34.895Z,31.5
2023-04-02T15:13:13.595Z,31.5
2023-04-02T15:14:50.863Z,31.5
2023-04-02T15:16:28.076Z,31.5
2023-04-02T15:18:06.785Z,31.5
2023-04-02T15:21:24.211Z,31.5
2023-04-02T15:23:02.989Z,31.5
2023-04-02T15:26:20.305Z,31.5
2023-04-02T15:27:59.009Z,31.5
2023-04-02T15:29:37.715Z,31.5
2023-04-02T15:31:16.450Z,31.5
2023-04-02T15:32:53.644Z,31.5
2023-04-02T15:34:30.891Z,31.5
2023-04-02T15:36:09.681Z,31.5
2023-04-02T15:37:48.308Z,31.5
2023-04-02T15:39:27.015Z,31.5
2023-04-02T15:41:05.710Z,31.5
2023-04-02T15:42:44.416Z,31.5
2023-04-02T15:44:23.169Z,31.5
2023-04-02T15:49:19.219Z,31
2023-04-02T15:52:33.307Z,31
2023-04-02T15:54:11.989Z,31
2023-04-02T15:57:29.446Z,31
2023-04-02T16:00:46.781Z,31
2023-04-02T16:02:25.496Z,31
2023-04-02T16:04:04.196Z,31
2023-04-02T16:05:42.890Z,31
2023-04-02T16:07:21.601Z,31
2023-04-02T16:08:58.853Z,31
2023-04-02T16:10:36.211Z,31
2023-04-02T16:12:14.781Z,31
2023-04-02T16:13:53.489Z,31
2023-04-02T16:15:32.233Z,31
2023-04-02T16:17:10.895Z,31
2023-04-02T16:18:49.606Z,31
2023-04-02T16:22:07.007Z,31
2023-04-02T16:23:45.710Z,31
2023-04-02T16:28:38.890Z,31
2023-04-02T16:30:17.622Z,31
2023-04-02T16:31:56.305Z,31
2023-04-02T16:33:34.994Z,31
2023-04-02T16:36:52.401Z,31
2023-04-02T16:38:31.116Z,31
2023-04-02T16:43:27.211Z,31
2023-04-02T16:45:04.470Z,31
2023-04-02T16:46:41.764Z,31
2023-04-02T16:48:20.407Z,31
2023-04-02T16:49:59.114Z,31
2023-04-02T16:51:37.885Z,31
2023-04-02T16:54:55.222Z,31
2023-04-02T16:56:33.923Z,31
2023-04-02T16:58:12.630Z,31
2023-04-02T16:59:51.343Z,31
2023-04-02T17:01:30.034Z,31
2023-04-02T17:03:07.276Z,31
2023-04-02T17:04:44.525Z,31
2023-04-02T17:06:23.209Z,30.5
2023-04-02T17:08:01.971Z,30.5
2023-04-02T17:11:19.340Z,30.5
2023-04-02T17:12:58.029Z,30.5
2023-04-02T17:14:36.734Z,30.5
2023-04-02T17:17:54.135Z,30.5
2023-04-02T17:19:32.892Z,30.5
2023-04-02T17:21:10.090Z,30.5
2023-04-02T17:22:47.417Z,30.5
2023-04-02T17:24:26.027Z,30.5
2023-04-02T17:26:04.764Z,30.5
2023-04-02T17:27:43.437Z,30.5
2023-04-02T17:29:22.144Z,30.5
2023-04-02T17:31:00.850Z,30.5
2023-04-02T17:32:39.538Z,30.5
2023-04-02T17:34:18.266Z,30
2023-04-02T17:35:57.059Z,30
2023-04-02T17:37:37.144Z,30.5
2023-04-02T17:39:14.380Z,30
2023-04-02T17:40:53.249Z,30.5
2023-04-02T17:42:31.795Z,30
2023-04-02T17:44:10.531Z,30.5
2023-04-02T17:45:49.280Z,30.5
2023-04-02T17:47:36.072Z,30.5
2023-04-02T17:49:14.771Z,30.5
2023-04-02T17:50:53.490Z,30.5
2023-04-02T17:54:09.428Z,30.5
2023-04-02T17:55:46.669Z,30.5
2023-04-02T17:57:25.370Z,30.5
2023-04-02T18:00:42.847Z,30
2023-04-02T18:02:21.505Z,30
2023-04-02T18:05:38.890Z,30
2023-04-02T18:07:17.607Z,30
2023-04-02T18:10:36.579Z,30
2023-04-02T18:12:13.564Z,30
2023-04-02T18:14:00.252Z,30
2023-04-02T18:15:39.000Z,30
2023-04-02T18:17:17.683Z,30
2023-04-02T18:18:56.368Z,30
2023-04-02T18:20:35.071Z,30
2023-04-02T18:22:13.902Z,30
2023-04-02T18:23:52.479Z,30
2023-04-02T18:25:31.291Z,30
2023-04-02T18:27:08.423Z,30
2023-04-02T18:28:45.672Z,30
2023-04-02T18:30:24.442Z,30
2023-04-02T18:32:11.262Z,30
2023-04-02T18:33:49.979Z,30
2023-04-02T18:35:28.663Z,30
2023-04-02T18:37:07.368Z,30
2023-04-02T18:38:46.078Z,30
2023-04-02T18:40:24.778Z,30
2023-04-02T18:43:40.732Z,30
2023-04-02T18:45:18.015Z,30
2023-04-02T18:46:56.660Z,30
2023-04-02T18:48:35.362Z,30
2023-04-02T18:50:14.078Z,30
2023-04-02T18:51:52.820Z,30
2023-04-02T18:53:31.471Z,30
2023-04-02T18:55:10.216Z,30
2023-04-02T18:56:49.102Z,30
2023-04-02T18:58:27.782Z,30
2023-04-02T19:00:06.421Z,30
2023-04-02T19:01:43.614Z,30
2023-04-02T19:03:20.888Z,30
2023-04-02T19:04:59.492Z,30
2023-04-02T19:06:38.434Z,30
2023-04-02T19:08:25.234Z,30
2023-04-02T19:10:03.905Z,30
2023-04-02T19:11:42.673Z,30
2023-04-02T19:13:21.337Z,30
2023-04-02T19:16:38.756Z,30
2023-04-02T19:18:16.043Z,30
2023-04-02T19:19:53.277Z,30
2023-04-02T19:21:31.988Z,30
2023-04-02T19:23:10.662Z,30
2023-04-02T19:24:49.302Z,30
2023-04-02T19:26:27.900Z,30
2023-04-02T19:28:06.761Z,30
2023-04-02T19:29:45.446Z,30
2023-04-02T19:31:23.987Z,30
2023-04-02T19:33:02.940Z,30
2023-04-02T19:34:41.584Z,30.5
2023-04-02T19:36:18.836Z,30.5
2023-04-02T19:37:56.069Z,30.5
2023-04-02T19:39:34.744Z,30.5
2023-04-02T19:41:13.420Z,30.5
2023-04-02T19:42:52.213Z,30.5
2023-04-02T19:44:30.848Z,30.5
2023-04-02T19:46:09.530Z,30.5
2023-04-02T19:47:48.247Z,30.5
2023-04-02T19:49:27.001Z,30.5
2023-04-02T19:51:05.663Z,31
2023-04-02T19:52:44.323Z,30.5
2023-04-02T19:54:21.618Z,31
2023-04-02T19:55:58.901Z,31
2023-04-02T19:57:37.613Z,31
2023-04-02T19:59:16.256Z,31
2023-04-02T20:00:54.991Z,31
2023-04-02T20:02:33.689Z,30.5
2023-04-02T20:04:12.448Z,30.5
2023-04-02T20:05:51.107Z,30
2023-04-02T20:07:29.791Z,30
2023-04-02T20:09:08.543Z,30
2023-04-02T20:10:47.019Z,30
2023-04-02T20:12:23.993Z,30
2023-04-02T20:14:01.244Z,30
2023-04-02T20:15:39.774Z,30
2023-04-02T20:17:18.652Z,30
2023-04-02T20:18:57.405Z,30.5
2023-04-02T20:20:35.881Z,30.5
2023-04-02T20:22:14.717Z,30.5
2023-04-02T20:23:53.476Z,30.5
2023-04-02T20:25:32.222Z,30.5
2023-04-02T20:27:10.927Z,30.5
2023-04-02T20:28:49.678Z,31
2023-04-02T20:30:26.642Z,30.5
2023-04-02T20:32:04.037Z,31
2023-04-02T20:33:42.811Z,31
2023-04-02T20:35:21.437Z,31
2023-04-02T20:37:00.222Z,31.5
2023-04-02T20:38:38.866Z,31.5
2023-04-02T20:40:17.516Z,31.5
2023-04-02T20:41:56.252Z,31.5
2023-04-02T20:43:34.980Z,32
2023-04-02T20:45:13.532Z,31.5
2023-04-02T20:46:52.375Z,32
2023-04-02T20:48:29.566Z,32
2023-04-02T20:50:06.708Z,32
2023-04-02T20:51:45.515Z,32.5
2023-04-02T20:53:24.315Z,32.5
2023-04-02T20:55:02.907Z,32.5
2023-04-02T20:56:41.674Z,32.5
2023-04-02T20:58:20.329Z,32.5
2023-04-02T20:59:59.037Z,32.5
2023-04-02T21:01:37.864Z,33
2023-04-02T21:03:16.343Z,33
2023-04-02T21:04:55.208Z,33
2023-04-02T21:06:32.437Z,33
2023-04-02T21:08:09.656Z,33
2023-04-02T21:09:48.375Z,33
2023-04-02T21:11:27.133Z,33
2023-04-02T21:13:05.739Z,33
2023-04-02T21:16:23.225Z,33.5
2023-04-02T21:18:01.826Z,33.5
2023-04-02T21:21:19.237Z,33.5
2023-04-02T21:22:58.023Z,33.5
2023-04-02T21:24:35.245Z,33.5
2023-04-02T21:26:12.322Z,33.5
2023-04-02T21:27:51.117Z,33.5
2023-04-02T21:29:29.899Z,33.5
2023-04-02T21:31:08.591Z,33.5
2023-04-02T21:32:47.306Z,33.5
2023-04-02T21:34:25.996Z,33.5
2023-04-02T21:36:04.703Z,33.5
2023-04-02T21:37:43.384Z,34
2023-04-02T21:39:22.153Z,34
2023-04-02T21:41:00.804Z,34
2023-04-02T21:42:38.063Z,34
2023-04-02T21:44:15.336Z,34
2023-04-02T21:45:53.982Z,34
2023-04-02T21:47:32.748Z,34
2023-04-02T21:49:11.400Z,34
2023-04-02T21:50:50.078Z,34
2023-04-02T21:52:28.869Z,34
2023-04-02T21:54:07.530Z,34
2023-04-02T21:55:46.253Z,34
2023-04-02T21:57:24.922Z,34
2023-04-02T21:59:03.631Z,34
2023-04-02T22:00:40.889Z,34
2023-04-02T22:02:17.694Z,34
2023-04-02T22:03:56.393Z,34
2023-04-02T22:05:35.057Z,34.5
2023-04-02T22:08:52.501Z,34.5
2023-04-02T22:10:31.020Z,34.5
2023-04-02T22:12:09.890Z,34.5
2023-04-02T22:13:48.564Z,34.5
2023-04-02T22:15:27.144Z,34.5
2023-04-02T22:17:06.002Z,34.5
2023-04-02T22:18:43.283Z,34.5
2023-04-02T22:20:20.465Z,34.5
2023-04-02T22:21:59.184Z,34.5
2023-04-02T22:23:37.901Z,34.5
2023-04-02T22:25:16.624Z,34.5
2023-04-02T22:26:55.361Z,34.5
2023-04-02T22:28:33.970Z,34.5
2023-04-02T22:30:12.599Z,34.5
2023-04-02T22:31:51.436Z,34.5
2023-04-02T22:33:29.941Z,34.5
2023-04-02T22:35:08.818Z,34.5
2023-04-02T22:36:46.050Z,34.5
2023-04-02T22:38:23.123Z,34.5
2023-04-02T22:40:01.940Z,34.5
2023-04-02T22:41:40.739Z,34.5
2023-04-02T22:43:19.419Z,35
2023-04-02T22:44:58.142Z,35
2023-04-02T22:46:36.727Z,35
2023-04-02T22:48:15.518Z,35
2023-04-02T22:49:54.189Z,35
2023-04-02T22:51:33.014Z,35
2023-04-02T22:53:11.642Z,35
2023-04-02T22:54:48.804Z,35
2023-04-02T22:56:26.171Z,35
2023-04-02T22:58:04.685Z,35
2023-04-02T22:59:43.359Z,35
2023-04-02T23:01:22.151Z,35
2023-04-02T23:03:00.775Z,35
2023-04-02T23:04:39.455Z,35
2023-04-02T23:06:18.476Z,35
2023-04-02T23:08:05.161Z,35
2023-04-02T23:09:43.932Z,35
2023-04-02T23:11:21.186Z,35
2023-04-02T23:12:58.469Z,35
2023-04-02T23:14:37.095Z,35
2023-04-02T23:16:15.856Z,35
2023-04-02T23:17:54.519Z,35
2023-04-02T23:19:33.190Z,35
2023-04-02T23:21:11.932Z,35
2023-04-02T23:22:50.683Z,35
2023-04-02T23:24:29.236Z,35
2023-04-02T23:26:08.073Z,35
2023-04-02T23:27:46.739Z,35
2023-04-02T23:29:23.816Z,35
2023-04-02T23:31:01.088Z,35.5
2023-04-02T23:32:39.763Z,35.5
2023-04-02T23:34:18.669Z,35.5
2023-04-02T23:35:57.318Z,35.5
2023-04-02T23:37:36.026Z,35.5
2023-04-02T23:39:14.718Z,35.5
2023-04-02T23:40:53.478Z,35.5
2023-04-02T23:42:31.973Z,35.5
2023-04-02T23:44:10.775Z,35.5
2023-04-02T23:45:49.591Z,35.5
2023-04-02T23:47:26.786Z,35.5
2023-04-02T23:49:03.563Z,35.5
2023-04-02T23:50:42.181Z,35.5
2023-04-02T23:52:21.022Z,35.5
2023-04-02T23:53:59.553Z,35.5
2023-04-02T23:55:38.416Z,35.5
2023-04-02T23:57:17.118Z,35.5
2023-04-02T23:58:55.798Z,35.5
